sensor_id;sensor_type;location;lat;lon;timestamp;P1;durP1;ratioP1;P2;durP2;ratioP2
5742;SDS011;2896;53.500;10.020;2022-08-25T00:01:08;9.90;;;5.90;;
5742;SDS011;2896;53.500;10.020;2022-08-25T00:03:37;7.40;;;5.83;;
5742;SDS011;2896;53.500;10.020;2022-08-25T00:06:05;6.80;;;5.97;;
5742;SDS011;2896;53.500;10.020;2022-08-25T00:08:33;6.67;;;6.07;;
5742;SDS011;2896;53.500;10.020;2022-08-25T00:11:02;8.70;;;6.50;;
5742;SDS011;2896;53.500;10.020;2022-08-25T00:13:29;10.53;;;6.70;;
5742;SDS011;2896;53.500;10.020;2022-08-25T00:15:56;8.80;;;6.40;;
5742;SDS011;2896;53.500;10.020;2022-08-25T00:18:23;12.83;;;5.93;;
5742;SDS011;2896;53.500;10.020;2022-08-25T00:20:50;8.23;;;5.83;;
5742;SDS011;2896;53.500;10.020;2022-08-25T00:23:18;14.87;;;7.13;;
5742;SDS011;2896;53.500;10.020;2022-08-25T00:25:45;9.30;;;6.40;;
5742;SDS011;2896;53.500;10.020;2022-08-25T00:28:11;9.43;;;6.00;;
5742;SDS011;2896;53.500;10.020;2022-08-25T00:30:40;6.10;;;5.57;;
5742;SDS011;2896;53.500;10.020;2022-08-25T00:33:07;5.83;;;5.43;;
5742;SDS011;2896;53.500;10.020;2022-08-25T00:35:35;7.30;;;5.83;;
5742;SDS011;2896;53.500;10.020;2022-08-25T00:38:01;7.13;;;6.47;;
5742;SDS011;2896;53.500;10.020;2022-08-25T00:40:30;7.13;;;6.40;;
5742;SDS011;2896;53.500;10.020;2022-08-25T00:42:56;6.90;;;6.13;;
5742;SDS011;2896;53.500;10.020;2022-08-25T00:45:24;7.00;;;6.20;;
5742;SDS011;2896;53.500;10.020;2022-08-25T00:47:51;9.20;;;6.80;;
5742;SDS011;2896;53.500;10.020;2022-08-25T00:50:18;7.33;;;5.50;;
5742;SDS011;2896;53.500;10.020;2022-08-25T00:52:47;10.90;;;5.40;;
5742;SDS011;2896;53.500;10.020;2022-08-25T00:55:19;12.93;;;7.37;;
5742;SDS011;2896;53.500;10.020;2022-08-25T00:57:51;8.83;;;5.80;;
5742;SDS011;2896;53.500;10.020;2022-08-25T01:00:21;14.60;;;6.20;;
5742;SDS011;2896;53.500;10.020;2022-08-25T01:02:49;9.80;;;6.90;;
5742;SDS011;2896;53.500;10.020;2022-08-25T01:05:17;8.07;;;6.87;;
5742;SDS011;2896;53.500;10.020;2022-08-25T01:07:44;7.30;;;6.23;;
5742;SDS011;2896;53.500;10.020;2022-08-25T01:10:12;9.67;;;6.53;;
5742;SDS011;2896;53.500;10.020;2022-08-25T01:12:39;7.47;;;6.67;;
5742;SDS011;2896;53.500;10.020;2022-08-25T01:15:08;12.53;;;7.27;;
5742;SDS011;2896;53.500;10.020;2022-08-25T01:17:39;14.00;;;6.80;;
5742;SDS011;2896;53.500;10.020;2022-08-25T01:20:11;8.60;;;6.30;;
5742;SDS011;2896;53.500;10.020;2022-08-25T01:22:40;8.17;;;7.07;;
5742;SDS011;2896;53.500;10.020;2022-08-25T01:25:10;6.87;;;6.20;;
5742;SDS011;2896;53.500;10.020;2022-08-25T01:27:48;8.43;;;6.10;;
5742;SDS011;2896;53.500;10.020;2022-08-25T01:30:14;8.63;;;6.97;;
5742;SDS011;2896;53.500;10.020;2022-08-25T01:32:41;10.23;;;7.07;;
5742;SDS011;2896;53.500;10.020;2022-08-25T01:35:08;7.83;;;6.73;;
5742;SDS011;2896;53.500;10.020;2022-08-25T01:37:34;8.63;;;6.33;;
5742;SDS011;2896;53.500;10.020;2022-08-25T01:40:03;7.20;;;5.80;;
5742;SDS011;2896;53.500;10.020;2022-08-25T01:42:36;7.17;;;6.57;;
5742;SDS011;2896;53.500;10.020;2022-08-25T01:45:11;7.77;;;6.27;;
5742;SDS011;2896;53.500;10.020;2022-08-25T01:47:38;13.50;;;7.27;;
5742;SDS011;2896;53.500;10.020;2022-08-25T01:50:05;6.57;;;6.03;;
5742;SDS011;2896;53.500;10.020;2022-08-25T01:52:33;5.93;;;5.40;;
5742;SDS011;2896;53.500;10.020;2022-08-25T01:55:10;11.13;;;7.33;;
5742;SDS011;2896;53.500;10.020;2022-08-25T01:57:36;6.13;;;5.50;;
5742;SDS011;2896;53.500;10.020;2022-08-25T02:00:03;5.80;;;5.33;;
5742;SDS011;2896;53.500;10.020;2022-08-25T02:02:31;7.90;;;6.00;;
5742;SDS011;2896;53.500;10.020;2022-08-25T02:04:57;9.17;;;6.67;;
5742;SDS011;2896;53.500;10.020;2022-08-25T02:07:24;7.83;;;6.47;;
5742;SDS011;2896;53.500;10.020;2022-08-25T02:09:51;7.13;;;6.53;;
5742;SDS011;2896;53.500;10.020;2022-08-25T02:12:19;6.27;;;5.73;;
5742;SDS011;2896;53.500;10.020;2022-08-25T02:14:45;7.80;;;6.00;;
5742;SDS011;2896;53.500;10.020;2022-08-25T02:17:12;5.93;;;5.43;;
5742;SDS011;2896;53.500;10.020;2022-08-25T02:19:39;6.40;;;5.90;;
5742;SDS011;2896;53.500;10.020;2022-08-25T02:22:06;6.57;;;5.90;;
5742;SDS011;2896;53.500;10.020;2022-08-25T02:24:32;7.43;;;5.90;;
5742;SDS011;2896;53.500;10.020;2022-08-25T02:26:59;5.77;;;5.27;;
5742;SDS011;2896;53.500;10.020;2022-08-25T02:29:29;6.17;;;5.67;;
5742;SDS011;2896;53.500;10.020;2022-08-25T02:31:56;6.00;;;5.50;;
5742;SDS011;2896;53.500;10.020;2022-08-25T02:34:22;5.17;;;4.87;;
5742;SDS011;2896;53.500;10.020;2022-08-25T02:36:49;5.50;;;5.10;;
5742;SDS011;2896;53.500;10.020;2022-08-25T02:39:16;6.27;;;5.77;;
5742;SDS011;2896;53.500;10.020;2022-08-25T02:41:42;5.90;;;5.33;;
5742;SDS011;2896;53.500;10.020;2022-08-25T02:44:09;7.20;;;6.30;;
5742;SDS011;2896;53.500;10.020;2022-08-25T02:46:37;8.70;;;6.07;;
5742;SDS011;2896;53.500;10.020;2022-08-25T02:49:04;6.97;;;6.27;;
5742;SDS011;2896;53.500;10.020;2022-08-25T02:51:31;5.20;;;4.90;;
5742;SDS011;2896;53.500;10.020;2022-08-25T02:53:59;5.40;;;5.00;;
5742;SDS011;2896;53.500;10.020;2022-08-25T02:56:28;5.67;;;5.27;;
5742;SDS011;2896;53.500;10.020;2022-08-25T02:58:55;6.37;;;5.87;;
5742;SDS011;2896;53.500;10.020;2022-08-25T03:01:23;11.23;;;7.17;;
5742;SDS011;2896;53.500;10.020;2022-08-25T03:03:51;5.60;;;5.20;;
5742;SDS011;2896;53.500;10.020;2022-08-25T03:06:19;7.17;;;6.50;;
5742;SDS011;2896;53.500;10.020;2022-08-25T03:08:48;8.50;;;7.70;;
5742;SDS011;2896;53.500;10.020;2022-08-25T03:11:15;8.07;;;7.27;;
5742;SDS011;2896;53.500;10.020;2022-08-25T03:13:42;8.83;;;6.93;;
5742;SDS011;2896;53.500;10.020;2022-08-25T03:16:09;7.77;;;7.03;;
5742;SDS011;2896;53.500;10.020;2022-08-25T03:18:36;7.77;;;7.17;;
5742;SDS011;2896;53.500;10.020;2022-08-25T03:21:04;9.03;;;6.90;;
5742;SDS011;2896;53.500;10.020;2022-08-25T03:23:31;11.87;;;6.50;;
5742;SDS011;2896;53.500;10.020;2022-08-25T03:25:57;6.90;;;6.30;;
5742;SDS011;2896;53.500;10.020;2022-08-25T03:28:41;7.00;;;6.50;;
5742;SDS011;2896;53.500;10.020;2022-08-25T03:31:08;5.90;;;5.53;;
5742;SDS011;2896;53.500;10.020;2022-08-25T03:33:35;6.70;;;6.20;;
5742;SDS011;2896;53.500;10.020;2022-08-25T03:36:06;6.67;;;6.00;;
5742;SDS011;2896;53.500;10.020;2022-08-25T03:38:34;7.07;;;6.47;;
5742;SDS011;2896;53.500;10.020;2022-08-25T03:41:09;6.80;;;6.10;;
5742;SDS011;2896;53.500;10.020;2022-08-25T03:43:38;6.90;;;6.27;;
5742;SDS011;2896;53.500;10.020;2022-08-25T03:46:05;5.80;;;5.50;;
5742;SDS011;2896;53.500;10.020;2022-08-25T03:48:31;7.50;;;6.67;;
5742;SDS011;2896;53.500;10.020;2022-08-25T03:50:58;7.33;;;6.10;;
5742;SDS011;2896;53.500;10.020;2022-08-25T03:53:26;6.50;;;5.90;;
5742;SDS011;2896;53.500;10.020;2022-08-25T03:55:53;6.87;;;6.17;;
5742;SDS011;2896;53.500;10.020;2022-08-25T03:58:20;8.90;;;7.43;;
5742;SDS011;2896;53.500;10.020;2022-08-25T04:00:46;8.20;;;7.40;;
5742;SDS011;2896;53.500;10.020;2022-08-25T04:03:13;7.23;;;6.53;;
5742;SDS011;2896;53.500;10.020;2022-08-25T04:05:39;6.83;;;6.33;;
5742;SDS011;2896;53.500;10.020;2022-08-25T04:08:06;10.27;;;6.60;;
5742;SDS011;2896;53.500;10.020;2022-08-25T04:10:36;10.30;;;7.57;;
5742;SDS011;2896;53.500;10.020;2022-08-25T04:13:03;8.10;;;7.40;;
5742;SDS011;2896;53.500;10.020;2022-08-25T04:15:29;7.40;;;6.90;;
5742;SDS011;2896;53.500;10.020;2022-08-25T04:17:56;7.43;;;6.90;;
5742;SDS011;2896;53.500;10.020;2022-08-25T04:20:22;8.03;;;7.37;;
5742;SDS011;2896;53.500;10.020;2022-08-25T04:22:49;7.43;;;6.83;;
5742;SDS011;2896;53.500;10.020;2022-08-25T04:25:16;8.23;;;7.40;;
5742;SDS011;2896;53.500;10.020;2022-08-25T04:27:44;17.83;;;8.70;;
5742;SDS011;2896;53.500;10.020;2022-08-25T04:30:11;10.40;;;8.10;;
5742;SDS011;2896;53.500;10.020;2022-08-25T04:32:38;10.47;;;9.33;;
5742;SDS011;2896;53.500;10.020;2022-08-25T04:35:05;13.37;;;10.60;;
5742;SDS011;2896;53.500;10.020;2022-08-25T04:37:32;11.30;;;9.70;;
5742;SDS011;2896;53.500;10.020;2022-08-25T04:39:59;11.23;;;9.20;;
5742;SDS011;2896;53.500;10.020;2022-08-25T04:42:26;10.07;;;9.17;;
5742;SDS011;2896;53.500;10.020;2022-08-25T04:44:54;13.57;;;9.90;;
5742;SDS011;2896;53.500;10.020;2022-08-25T04:47:21;16.83;;;10.83;;
5742;SDS011;2896;53.500;10.020;2022-08-25T04:49:48;18.03;;;9.67;;
5742;SDS011;2896;53.500;10.020;2022-08-25T04:52:14;10.63;;;9.63;;
5742;SDS011;2896;53.500;10.020;2022-08-25T04:54:41;19.43;;;10.40;;
5742;SDS011;2896;53.500;10.020;2022-08-25T04:57:08;13.30;;;11.57;;
5742;SDS011;2896;53.500;10.020;2022-08-25T04:59:34;20.70;;;11.70;;
5742;SDS011;2896;53.500;10.020;2022-08-25T05:02:03;12.17;;;10.20;;
5742;SDS011;2896;53.500;10.020;2022-08-25T05:04:31;12.30;;;10.07;;
5742;SDS011;2896;53.500;10.020;2022-08-25T05:06:59;17.83;;;11.87;;
5742;SDS011;2896;53.500;10.020;2022-08-25T05:09:26;15.53;;;10.07;;
5742;SDS011;2896;53.500;10.020;2022-08-25T05:11:53;20.43;;;10.50;;
5742;SDS011;2896;53.500;10.020;2022-08-25T05:14:20;12.70;;;10.70;;
5742;SDS011;2896;53.500;10.020;2022-08-25T05:16:48;18.17;;;12.20;;
5742;SDS011;2896;53.500;10.020;2022-08-25T05:19:19;16.60;;;11.67;;
5742;SDS011;2896;53.500;10.020;2022-08-25T05:21:50;26.67;;;12.57;;
5742;SDS011;2896;53.500;10.020;2022-08-25T05:24:17;24.97;;;12.40;;
5742;SDS011;2896;53.500;10.020;2022-08-25T05:26:46;16.53;;;12.30;;
5742;SDS011;2896;53.500;10.020;2022-08-25T05:29:13;19.60;;;11.60;;
5742;SDS011;2896;53.500;10.020;2022-08-25T05:31:39;16.40;;;12.43;;
5742;SDS011;2896;53.500;10.020;2022-08-25T05:34:07;17.37;;;12.57;;
5742;SDS011;2896;53.500;10.020;2022-08-25T05:36:35;16.17;;;11.73;;
5742;SDS011;2896;53.500;10.020;2022-08-25T05:39:02;21.10;;;13.40;;
5742;SDS011;2896;53.500;10.020;2022-08-25T05:41:29;23.63;;;12.90;;
5742;SDS011;2896;53.500;10.020;2022-08-25T05:43:57;16.93;;;12.53;;
5742;SDS011;2896;53.500;10.020;2022-08-25T05:46:24;18.60;;;13.50;;
5742;SDS011;2896;53.500;10.020;2022-08-25T05:48:51;21.60;;;13.90;;
5742;SDS011;2896;53.500;10.020;2022-08-25T05:51:19;26.37;;;14.93;;
5742;SDS011;2896;53.500;10.020;2022-08-25T05:53:47;17.70;;;15.27;;
5742;SDS011;2896;53.500;10.020;2022-08-25T05:56:15;23.30;;;15.33;;
5742;SDS011;2896;53.500;10.020;2022-08-25T05:58:42;27.23;;;18.70;;
5742;SDS011;2896;53.500;10.020;2022-08-25T06:01:16;23.90;;;18.20;;
5742;SDS011;2896;53.500;10.020;2022-08-25T06:04:02;25.77;;;17.93;;
5742;SDS011;2896;53.500;10.020;2022-08-25T06:06:29;25.00;;;16.27;;
5742;SDS011;2896;53.500;10.020;2022-08-25T06:08:57;27.30;;;17.87;;
5742;SDS011;2896;53.500;10.020;2022-08-25T06:11:24;32.50;;;21.07;;
5742;SDS011;2896;53.500;10.020;2022-08-25T06:13:51;27.30;;;20.00;;
5742;SDS011;2896;53.500;10.020;2022-08-25T06:16:18;28.30;;;20.00;;
5742;SDS011;2896;53.500;10.020;2022-08-25T06:18:44;27.73;;;20.30;;
5742;SDS011;2896;53.500;10.020;2022-08-25T06:21:12;32.43;;;20.03;;
5742;SDS011;2896;53.500;10.020;2022-08-25T06:23:40;23.37;;;19.23;;
5742;SDS011;2896;53.500;10.020;2022-08-25T06:26:10;32.57;;;20.97;;
5742;SDS011;2896;53.500;10.020;2022-08-25T06:28:37;49.27;;;20.07;;
5742;SDS011;2896;53.500;10.020;2022-08-25T06:31:04;25.33;;;18.63;;
5742;SDS011;2896;53.500;10.020;2022-08-25T06:33:31;26.43;;;19.13;;
5742;SDS011;2896;53.500;10.020;2022-08-25T06:36:00;23.77;;;18.50;;
5742;SDS011;2896;53.500;10.020;2022-08-25T06:38:27;31.50;;;20.30;;
5742;SDS011;2896;53.500;10.020;2022-08-25T06:40:53;24.83;;;18.10;;
5742;SDS011;2896;53.500;10.020;2022-08-25T06:43:23;23.50;;;19.40;;
5742;SDS011;2896;53.500;10.020;2022-08-25T06:45:49;26.27;;;16.93;;
5742;SDS011;2896;53.500;10.020;2022-08-25T06:48:16;22.87;;;17.00;;
5742;SDS011;2896;53.500;10.020;2022-08-25T06:50:43;26.77;;;17.80;;
5742;SDS011;2896;53.500;10.020;2022-08-25T06:53:10;30.77;;;18.70;;
5742;SDS011;2896;53.500;10.020;2022-08-25T06:55:37;24.83;;;17.93;;
5742;SDS011;2896;53.500;10.020;2022-08-25T06:58:04;20.53;;;16.80;;
5742;SDS011;2896;53.500;10.020;2022-08-25T07:00:35;26.23;;;16.90;;
5742;SDS011;2896;53.500;10.020;2022-08-25T07:03:01;26.83;;;18.90;;
5742;SDS011;2896;53.500;10.020;2022-08-25T07:05:28;32.87;;;16.97;;
5742;SDS011;2896;53.500;10.020;2022-08-25T07:07:56;27.33;;;17.80;;
5742;SDS011;2896;53.500;10.020;2022-08-25T07:10:22;27.40;;;17.77;;
5742;SDS011;2896;53.500;10.020;2022-08-25T07:12:49;23.20;;;15.90;;
5742;SDS011;2896;53.500;10.020;2022-08-25T07:15:16;36.13;;;18.43;;
5742;SDS011;2896;53.500;10.020;2022-08-25T07:17:45;20.50;;;16.27;;
5742;SDS011;2896;53.500;10.020;2022-08-25T07:20:11;26.20;;;18.10;;
5742;SDS011;2896;53.500;10.020;2022-08-25T07:22:38;20.60;;;15.80;;
5742;SDS011;2896;53.500;10.020;2022-08-25T07:25:05;24.20;;;17.23;;
5742;SDS011;2896;53.500;10.020;2022-08-25T07:27:32;20.37;;;16.43;;
5742;SDS011;2896;53.500;10.020;2022-08-25T07:29:59;22.77;;;14.60;;
5742;SDS011;2896;53.500;10.020;2022-08-25T07:32:26;20.27;;;15.40;;
5742;SDS011;2896;53.500;10.020;2022-08-25T07:34:54;25.60;;;16.60;;
5742;SDS011;2896;53.500;10.020;2022-08-25T07:37:38;18.27;;;15.07;;
5742;SDS011;2896;53.500;10.020;2022-08-25T07:40:05;18.00;;;14.47;;
5742;SDS011;2896;53.500;10.020;2022-08-25T07:42:33;14.80;;;13.10;;
5742;SDS011;2896;53.500;10.020;2022-08-25T07:45:00;23.80;;;15.83;;
5742;SDS011;2896;53.500;10.020;2022-08-25T07:47:27;22.67;;;15.10;;
5742;SDS011;2896;53.500;10.020;2022-08-25T07:49:55;16.17;;;14.47;;
5742;SDS011;2896;53.500;10.020;2022-08-25T07:52:22;20.87;;;14.63;;
5742;SDS011;2896;53.500;10.020;2022-08-25T07:54:49;21.67;;;14.87;;
5742;SDS011;2896;53.500;10.020;2022-08-25T07:57:17;25.50;;;15.13;;
5742;SDS011;2896;53.500;10.020;2022-08-25T07:59:46;16.67;;;14.90;;
5742;SDS011;2896;53.500;10.020;2022-08-25T08:02:13;16.00;;;14.20;;
5742;SDS011;2896;53.500;10.020;2022-08-25T08:04:39;20.80;;;14.53;;
5742;SDS011;2896;53.500;10.020;2022-08-25T08:07:10;20.37;;;14.80;;
5742;SDS011;2896;53.500;10.020;2022-08-25T08:09:37;17.67;;;15.37;;
5742;SDS011;2896;53.500;10.020;2022-08-25T08:12:04;19.83;;;15.30;;
5742;SDS011;2896;53.500;10.020;2022-08-25T08:14:31;18.33;;;14.27;;
5742;SDS011;2896;53.500;10.020;2022-08-25T08:16:58;25.40;;;14.83;;
5742;SDS011;2896;53.500;10.020;2022-08-25T08:19:25;20.50;;;15.37;;
5742;SDS011;2896;53.500;10.020;2022-08-25T08:21:51;14.90;;;13.17;;
5742;SDS011;2896;53.500;10.020;2022-08-25T08:24:19;17.33;;;13.47;;
5742;SDS011;2896;53.500;10.020;2022-08-25T08:26:46;17.80;;;12.60;;
5742;SDS011;2896;53.500;10.020;2022-08-25T08:29:13;17.47;;;12.80;;
5742;SDS011;2896;53.500;10.020;2022-08-25T08:31:40;16.90;;;12.77;;
5742;SDS011;2896;53.500;10.020;2022-08-25T08:34:07;18.00;;;14.07;;
5742;SDS011;2896;53.500;10.020;2022-08-25T08:36:33;14.90;;;12.20;;
5742;SDS011;2896;53.500;10.020;2022-08-25T08:39:00;15.57;;;13.93;;
5742;SDS011;2896;53.500;10.020;2022-08-25T08:41:33;14.70;;;11.83;;
5742;SDS011;2896;53.500;10.020;2022-08-25T08:44:27;13.27;;;11.77;;
5742;SDS011;2896;53.500;10.020;2022-08-25T08:47:03;12.60;;;10.10;;
5742;SDS011;2896;53.500;10.020;2022-08-25T08:49:33;15.40;;;11.80;;
5742;SDS011;2896;53.500;10.020;2022-08-25T08:52:04;14.03;;;11.10;;
5742;SDS011;2896;53.500;10.020;2022-08-25T08:54:33;13.30;;;11.93;;
5742;SDS011;2896;53.500;10.020;2022-08-25T08:57:06;13.93;;;11.50;;
5742;SDS011;2896;53.500;10.020;2022-08-25T08:59:39;19.13;;;10.90;;
5742;SDS011;2896;53.500;10.020;2022-08-25T09:02:12;15.87;;;11.03;;
5742;SDS011;2896;53.500;10.020;2022-08-25T09:04:45;18.90;;;11.20;;
5742;SDS011;2896;53.500;10.020;2022-08-25T09:07:20;11.23;;;10.03;;
5742;SDS011;2896;53.500;10.020;2022-08-25T09:09:51;13.60;;;11.93;;
5742;SDS011;2896;53.500;10.020;2022-08-25T09:12:22;20.23;;;11.43;;
5742;SDS011;2896;53.500;10.020;2022-08-25T09:14:57;16.30;;;11.60;;
5742;SDS011;2896;53.500;10.020;2022-08-25T09:17:38;18.63;;;10.83;;
5742;SDS011;2896;53.500;10.020;2022-08-25T09:20:37;15.50;;;11.20;;
5742;SDS011;2896;53.500;10.020;2022-08-25T09:23:12;17.57;;;10.17;;
5742;SDS011;2896;53.500;10.020;2022-08-25T09:25:49;22.53;;;10.97;;
5742;SDS011;2896;53.500;10.020;2022-08-25T09:28:28;12.73;;;11.03;;
5742;SDS011;2896;53.500;10.020;2022-08-25T09:30:58;11.40;;;10.20;;
5742;SDS011;2896;53.500;10.020;2022-08-25T09:33:26;13.37;;;11.50;;
5742;SDS011;2896;53.500;10.020;2022-08-25T09:35:54;21.10;;;10.50;;
5742;SDS011;2896;53.500;10.020;2022-08-25T09:38:21;12.90;;;11.50;;
5742;SDS011;2896;53.500;10.020;2022-08-25T09:40:51;14.00;;;10.50;;
5742;SDS011;2896;53.500;10.020;2022-08-25T09:43:21;12.17;;;10.53;;
5742;SDS011;2896;53.500;10.020;2022-08-25T09:45:56;19.13;;;10.70;;
5742;SDS011;2896;53.500;10.020;2022-08-25T09:48:25;13.30;;;9.87;;
5742;SDS011;2896;53.500;10.020;2022-08-25T09:50:56;12.13;;;9.80;;
5742;SDS011;2896;53.500;10.020;2022-08-25T09:53:26;18.40;;;11.33;;
5742;SDS011;2896;53.500;10.020;2022-08-25T09:55:56;14.93;;;11.10;;
5742;SDS011;2896;53.500;10.020;2022-08-25T09:58:28;14.10;;;11.40;;
5742;SDS011;2896;53.500;10.020;2022-08-25T10:01:02;13.90;;;10.07;;
5742;SDS011;2896;53.500;10.020;2022-08-25T10:03:46;14.63;;;10.37;;
5742;SDS011;2896;53.500;10.020;2022-08-25T10:06:33;12.37;;;10.20;;
5742;SDS011;2896;53.500;10.020;2022-08-25T10:09:07;14.93;;;9.90;;
5742;SDS011;2896;53.500;10.020;2022-08-25T10:11:40;13.53;;;10.37;;
5742;SDS011;2896;53.500;10.020;2022-08-25T10:14:16;11.23;;;10.00;;
5742;SDS011;2896;53.500;10.020;2022-08-25T10:16:46;9.13;;;8.20;;
5742;SDS011;2896;53.500;10.020;2022-08-25T10:19:21;14.27;;;9.70;;
5742;SDS011;2896;53.500;10.020;2022-08-25T10:22:04;10.70;;;9.00;;
5742;SDS011;2896;53.500;10.020;2022-08-25T10:24:32;8.93;;;8.20;;
5742;SDS011;2896;53.500;10.020;2022-08-25T10:27:00;11.00;;;8.33;;
5742;SDS011;2896;53.500;10.020;2022-08-25T10:29:38;26.97;;;8.57;;
5742;SDS011;2896;53.500;10.020;2022-08-25T10:32:21;10.70;;;8.43;;
5742;SDS011;2896;53.500;10.020;2022-08-25T10:34:53;12.33;;;8.03;;
5742;SDS011;2896;53.500;10.020;2022-08-25T10:37:23;9.67;;;8.30;;
5742;SDS011;2896;53.500;10.020;2022-08-25T10:40:02;20.23;;;8.50;;
5742;SDS011;2896;53.500;10.020;2022-08-25T10:42:40;10.93;;;9.00;;
5742;SDS011;2896;53.500;10.020;2022-08-25T10:45:18;9.30;;;7.97;;
5742;SDS011;2896;53.500;10.020;2022-08-25T10:48:13;13.40;;;7.13;;
5742;SDS011;2896;53.500;10.020;2022-08-25T10:50:51;13.70;;;8.17;;
5742;SDS011;2896;53.500;10.020;2022-08-25T10:53:25;16.00;;;7.50;;
5742;SDS011;2896;53.500;10.020;2022-08-25T10:56:02;13.47;;;8.70;;
5742;SDS011;2896;53.500;10.020;2022-08-25T11:01:38;22.63;;;9.03;;
5742;SDS011;2896;53.500;10.020;2022-08-25T11:04:14;10.83;;;8.10;;
5742;SDS011;2896;53.500;10.020;2022-08-25T11:06:47;8.33;;;7.50;;
5742;SDS011;2896;53.500;10.020;2022-08-25T11:09:17;8.50;;;7.70;;
5742;SDS011;2896;53.500;10.020;2022-08-25T11:11:49;12.07;;;7.80;;
5742;SDS011;2896;53.500;10.020;2022-08-25T11:14:21;14.70;;;8.20;;
5742;SDS011;2896;53.500;10.020;2022-08-25T11:16:54;12.97;;;7.33;;
5742;SDS011;2896;53.500;10.020;2022-08-25T11:19:26;16.80;;;8.17;;
5742;SDS011;2896;53.500;10.020;2022-08-25T11:21:57;13.60;;;8.37;;
5742;SDS011;2896;53.500;10.020;2022-08-25T11:24:35;13.53;;;8.10;;
5742;SDS011;2896;53.500;10.020;2022-08-25T11:27:09;9.27;;;8.33;;
5742;SDS011;2896;53.500;10.020;2022-08-25T11:29:39;9.47;;;6.50;;
5742;SDS011;2896;53.500;10.020;2022-08-25T11:32:10;12.17;;;7.30;;
5742;SDS011;2896;53.500;10.020;2022-08-25T11:34:38;10.07;;;6.90;;
5742;SDS011;2896;53.500;10.020;2022-08-25T11:37:06;8.33;;;7.00;;
5742;SDS011;2896;53.500;10.020;2022-08-25T11:39:54;7.40;;;6.73;;
5742;SDS011;2896;53.500;10.020;2022-08-25T11:42:36;7.47;;;6.40;;
5742;SDS011;2896;53.500;10.020;2022-08-25T11:45:11;7.77;;;6.20;;
5742;SDS011;2896;53.500;10.020;2022-08-25T11:47:54;25.53;;;6.40;;
5742;SDS011;2896;53.500;10.020;2022-08-25T11:50:36;10.40;;;5.50;;
5742;SDS011;2896;53.500;10.020;2022-08-25T11:53:24;7.03;;;5.80;;
5742;SDS011;2896;53.500;10.020;2022-08-25T11:55:53;21.30;;;6.03;;
5742;SDS011;2896;53.500;10.020;2022-08-25T11:58:33;10.20;;;5.17;;
5742;SDS011;2896;53.500;10.020;2022-08-25T12:01:05;6.03;;;5.37;;
5742;SDS011;2896;53.500;10.020;2022-08-25T12:15:23;6.27;;;4.83;;
5742;SDS011;2896;53.500;10.020;2022-08-25T12:18:06;24.80;;;4.10;;
5742;SDS011;2896;53.500;10.020;2022-08-25T12:23:35;7.87;;;3.90;;
5742;SDS011;2896;53.500;10.020;2022-08-25T12:26:06;10.47;;;4.00;;
5742;SDS011;2896;53.500;10.020;2022-08-25T12:28:45;6.90;;;3.83;;
5742;SDS011;2896;53.500;10.020;2022-08-25T12:31:21;4.43;;;3.83;;
5742;SDS011;2896;53.500;10.020;2022-08-25T12:34:05;11.30;;;4.60;;
5742;SDS011;2896;53.500;10.020;2022-08-25T12:36:54;6.40;;;4.13;;
5742;SDS011;2896;53.500;10.020;2022-08-25T12:39:27;10.77;;;5.10;;
5742;SDS011;2896;53.500;10.020;2022-08-25T12:41:57;11.77;;;5.23;;
5742;SDS011;2896;53.500;10.020;2022-08-25T12:44:34;7.63;;;4.20;;
5742;SDS011;2896;53.500;10.020;2022-08-25T12:47:05;6.03;;;4.00;;
5742;SDS011;2896;53.500;10.020;2022-08-25T12:49:35;11.00;;;4.80;;
5742;SDS011;2896;53.500;10.020;2022-08-25T12:52:04;10.70;;;4.20;;
5742;SDS011;2896;53.500;10.020;2022-08-25T12:54:38;7.67;;;4.83;;
5742;SDS011;2896;53.500;10.020;2022-08-25T12:57:18;9.30;;;4.80;;
5742;SDS011;2896;53.500;10.020;2022-08-25T12:59:53;6.87;;;4.40;;
5742;SDS011;2896;53.500;10.020;2022-08-25T13:02:35;7.13;;;4.40;;
5742;SDS011;2896;53.500;10.020;2022-08-25T13:08:14;4.83;;;3.93;;
5742;SDS011;2896;53.500;10.020;2022-08-25T13:10:56;8.07;;;5.00;;
5742;SDS011;2896;53.500;10.020;2022-08-25T13:13:34;4.03;;;3.73;;
5742;SDS011;2896;53.500;10.020;2022-08-25T13:16:15;4.37;;;4.00;;
5742;SDS011;2896;53.500;10.020;2022-08-25T13:18:43;7.63;;;4.87;;
5742;SDS011;2896;53.500;10.020;2022-08-25T13:21:12;14.10;;;4.20;;
5742;SDS011;2896;53.500;10.020;2022-08-25T13:23:43;5.63;;;4.00;;
5742;SDS011;2896;53.500;10.020;2022-08-25T13:26:13;4.70;;;4.33;;
5742;SDS011;2896;53.500;10.020;2022-08-25T13:28:42;7.20;;;4.40;;
5742;SDS011;2896;53.500;10.020;2022-08-25T13:31:13;7.63;;;4.43;;
5742;SDS011;2896;53.500;10.020;2022-08-25T13:33:48;9.33;;;4.90;;
5742;SDS011;2896;53.500;10.020;2022-08-25T13:36:16;4.90;;;4.40;;
5742;SDS011;2896;53.500;10.020;2022-08-25T13:39:09;11.43;;;4.20;;
5742;SDS011;2896;53.500;10.020;2022-08-25T13:41:38;4.37;;;4.07;;
5742;SDS011;2896;53.500;10.020;2022-08-25T13:44:11;6.40;;;4.17;;
5742;SDS011;2896;53.500;10.020;2022-08-25T13:46:38;4.27;;;3.87;;
5742;SDS011;2896;53.500;10.020;2022-08-25T13:49:07;7.93;;;5.23;;
5742;SDS011;2896;53.500;10.020;2022-08-25T13:51:35;6.10;;;3.97;;
5742;SDS011;2896;53.500;10.020;2022-08-25T13:54:04;4.63;;;4.10;;
5742;SDS011;2896;53.500;10.020;2022-08-25T13:56:33;4.57;;;4.20;;
5742;SDS011;2896;53.500;10.020;2022-08-25T13:59:02;4.80;;;4.50;;
5742;SDS011;2896;53.500;10.020;2022-08-25T14:01:32;7.30;;;4.97;;
5742;SDS011;2896;53.500;10.020;2022-08-25T14:04:27;10.00;;;4.70;;
5742;SDS011;2896;53.500;10.020;2022-08-25T14:07:06;8.93;;;4.87;;
5742;SDS011;2896;53.500;10.020;2022-08-25T14:09:51;11.03;;;4.57;;
5742;SDS011;2896;53.500;10.020;2022-08-25T14:12:29;6.73;;;4.53;;
5742;SDS011;2896;53.500;10.020;2022-08-25T14:15:10;6.10;;;4.33;;
5742;SDS011;2896;53.500;10.020;2022-08-25T14:17:59;9.37;;;4.60;;
5742;SDS011;2896;53.500;10.020;2022-08-25T14:20:29;5.13;;;4.23;;
5742;SDS011;2896;53.500;10.020;2022-08-25T14:23:01;4.73;;;4.43;;
5742;SDS011;2896;53.500;10.020;2022-08-25T14:25:30;10.07;;;4.87;;
5742;SDS011;2896;53.500;10.020;2022-08-25T14:27:57;4.50;;;4.10;;
5742;SDS011;2896;53.500;10.020;2022-08-25T14:30:25;7.47;;;4.87;;
5742;SDS011;2896;53.500;10.020;2022-08-25T14:32:52;10.57;;;4.70;;
5742;SDS011;2896;53.500;10.020;2022-08-25T14:35:21;7.13;;;4.43;;
5742;SDS011;2896;53.500;10.020;2022-08-25T14:37:47;4.30;;;3.90;;
5742;SDS011;2896;53.500;10.020;2022-08-25T14:40:14;8.03;;;4.10;;
5742;SDS011;2896;53.500;10.020;2022-08-25T14:42:43;23.83;;;4.80;;
5742;SDS011;2896;53.500;10.020;2022-08-25T14:45:11;10.43;;;4.87;;
5742;SDS011;2896;53.500;10.020;2022-08-25T14:47:38;6.00;;;4.30;;
5742;SDS011;2896;53.500;10.020;2022-08-25T14:50:05;7.17;;;3.80;;
5742;SDS011;2896;53.500;10.020;2022-08-25T14:52:33;7.70;;;4.37;;
5742;SDS011;2896;53.500;10.020;2022-08-25T14:55:00;11.30;;;4.53;;
5742;SDS011;2896;53.500;10.020;2022-08-25T14:57:26;16.60;;;4.87;;
5742;SDS011;2896;53.500;10.020;2022-08-25T14:59:53;6.43;;;4.20;;
5742;SDS011;2896;53.500;10.020;2022-08-25T15:02:21;4.17;;;3.97;;
5742;SDS011;2896;53.500;10.020;2022-08-25T15:04:49;10.03;;;4.17;;
5742;SDS011;2896;53.500;10.020;2022-08-25T15:07:18;8.60;;;4.70;;
5742;SDS011;2896;53.500;10.020;2022-08-25T15:10:05;9.10;;;4.30;;
5742;SDS011;2896;53.500;10.020;2022-08-25T15:12:32;4.40;;;4.00;;
5742;SDS011;2896;53.500;10.020;2022-08-25T15:14:59;10.23;;;4.67;;
5742;SDS011;2896;53.500;10.020;2022-08-25T15:17:26;10.00;;;4.47;;
5742;SDS011;2896;53.500;10.020;2022-08-25T15:19:53;4.53;;;4.10;;
5742;SDS011;2896;53.500;10.020;2022-08-25T15:22:20;8.67;;;5.00;;
5742;SDS011;2896;53.500;10.020;2022-08-25T15:24:47;7.43;;;4.40;;
5742;SDS011;2896;53.500;10.020;2022-08-25T15:27:17;10.60;;;4.43;;